Time;durP1;ratioP1;P1;durP2;ratioP2;P2;SDS_P1;SDS_P2;PMS_P1;PMS_P2;Temp;Humidity;BMP_temperature;BMP_pressure;BME280_temperature;BME280_humidity;BME280_pressure;Samples;Min_cycle;Max_cycle;Signal;HPM_P1;HPM_P2
2021/07/13 00:00:23;;;;;;;9.63;5.90;;;25.00;77.00;;;;;;5061005;28;20244;-65
2021/07/13 00:02:51;;;;;;;8.43;6.43;;;24.90;77.60;;;;;;5065852;28;20213;-65
2021/07/13 00:05:20;;;;;;;9.47;6.93;;;24.80;77.90;;;;;;5065532;28;20280;-65
2021/07/13 00:07:48;;;;;;;7.60;5.80;;;24.80;78.20;;;;;;5063876;28;20699;-65
2021/07/13 00:10:21;;;;;;;10.80;6.17;;;24.80;78.20;;;;;;5065470;28;20205;-65
2021/07/13 00:12:49;;;;;;;6.93;5.97;;;24.80;78.40;;;;;;5070990;28;20202;-65
2021/07/13 00:15:22;;;;;;;9.77;6.13;;;24.80;78.40;;;;;;5067122;28;20205;-65
2021/07/13 00:17:53;;;;;;;9.97;6.47;;;24.70;78.70;;;;;;5067141;28;20249;-65
2021/07/13 00:20:21;;;;;;;8.47;6.40;;;24.60;78.90;;;;;;5068475;28;20271;-65
2021/07/13 00:22:49;;;;;;;9.63;5.87;;;24.60;79.30;;;;;;5063858;28;20221;-65
2021/07/13 00:25:16;;;;;;;11.47;6.07;;;24.50;79.40;;;;;;5065193;28;20198;-65
2021/07/13 00:27:44;;;;;;;9.63;6.47;;;24.50;79.80;;;;;;5071971;28;20263;-65
2021/07/13 00:30:13;;;;;;;12.40;6.47;;;24.50;79.80;;;;;;5069917;28;20210;-65
2021/07/13 00:32:40;;;;;;;12.63;6.87;;;24.40;80.10;;;;;;5066296;28;20228;-65
2021/07/13 00:35:09;;;;;;;15.07;6.63;;;24.40;80.30;;;;;;5066053;28;20214;-65
2021/07/13 00:37:36;;;;;;;11.37;6.60;;;24.30;80.40;;;;;;5067215;28;20224;-65
2021/07/13 00:40:06;;;;;;;8.93;5.90;;;24.30;80.80;;;;;;5064808;28;20261;-65
2021/07/13 00:42:33;;;;;;;9.93;6.03;;;24.20;81.00;;;;;;5064358;28;20202;-65
2021/07/13 00:44:59;;;;;;;10.67;6.90;;;24.20;81.20;;;;;;5064067;28;20211;-65
2021/07/13 00:47:27;;;;;;;7.60;6.70;;;24.10;81.50;;;;;;5063842;28;20285;-65
2021/07/13 00:49:54;;;;;;;11.47;6.93;;;24.20;81.80;;;;;;5063622;28;20234;-65
2021/07/13 00:52:21;;;;;;;10.10;7.50;;;24.10;82.10;;;;;;5063881;28;20206;-65
2021/07/13 00:54:49;;;;;;;9.10;7.53;;;24.00;82.30;;;;;;5065585;28;20209;-65
2021/07/13 00:57:18;;;;;;;7.33;6.63;;;24.00;82.70;;;;;;5064719;28;20210;-65
2021/07/13 00:59:46;;;;;;;9.73;7.10;;;24.00;83.00;;;;;;5066251;28;20523;-65
2021/07/13 01:02:15;;;;;;;14.17;7.93;;;23.90;83.20;;;;;;5064536;28;20603;-65
2021/07/13 01:04:48;;;;;;;10.50;7.07;;;23.90;83.60;;;;;;5063293;28;20574;-65
2021/07/13 01:07:46;;;;;;;10.10;7.40;;;23.80;83.80;;;;;;5064963;28;20214;-65
2021/07/13 01:10:42;;;;;;;9.47;7.87;;;23.80;84.00;;;;;;5061218;28;20213;-65
2021/07/13 01:13:30;;;;;;;11.23;7.73;;;23.80;84.20;;;;;;5061170;28;20210;-65
2021/07/13 01:16:23;;;;;;;11.30;7.50;;;23.80;84.30;;;;;;5064454;28;20209;-65
2021/07/13 01:18:54;;;;;;;7.70;6.70;;;23.80;84.40;;;;;;5062998;28;20238;-65
2021/07/13 01:21:33;;;;;;;12.50;7.73;;;23.80;84.60;;;;;;5062830;28;20218;-65
2021/07/13 01:24:19;;;;;;;9.83;6.90;;;23.80;84.60;;;;;;5062978;28;20276;-65
2021/07/13 01:26:58;;;;;;;9.73;6.80;;;23.80;84.70;;;;;;5064883;28;20615;-65
2021/07/13 01:29:26;;;;;;;7.83;7.13;;;23.80;84.70;;;;;;5065562;28;20229;-65
2021/07/13 01:31:56;;;;;;;8.67;7.70;;;23.80;84.80;;;;;;5063391;28;20263;-65
2021/07/13 01:34:28;;;;;;;7.80;7.00;;;23.80;85.00;;;;;;5067124;28;20209;-65
2021/07/13 01:37:00;;;;;;;9.03;7.57;;;23.80;85.20;;;;;;5063710;28;20263;-65
2021/07/13 01:39:28;;;;;;;9.57;6.67;;;23.80;85.40;;;;;;5063598;28;20280;-65
2021/07/13 01:42:01;;;;;;;8.90;7.40;;;23.70;85.50;;;;;;5062482;28;20698;-65
2021/07/13 01:44:32;;;;;;;9.43;7.23;;;23.70;85.40;;;;;;5065789;28;20716;-65
2021/07/13 01:46:59;;;;;;;6.63;5.70;;;23.80;85.20;;;;;;5059577;28;20274;-65
2021/07/13 01:49:28;;;;;;;9.10;5.90;;;23.80;85.00;;;;;;5062907;28;20238;-65
2021/07/13 01:51:56;;;;;;;12.43;6.30;;;23.80;84.50;;;;;;5066038;28;20531;-65
2021/07/13 01:54:26;;;;;;;10.80;6.13;;;23.80;84.20;;;;;;5062334;28;20717;-65
2021/07/13 01:56:56;;;;;;;10.80;6.00;;;23.80;84.20;;;;;;5063098;28;20213;-65
2021/07/13 01:59:24;;;;;;;6.83;5.30;;;23.90;84.10;;;;;;5064761;28;20217;-65
2021/07/13 02:01:56;;;;;;;10.17;6.43;;;23.80;84.10;;;;;;5064046;28;20217;-65
2021/07/13 02:04:30;;;;;;;13.00;5.80;;;23.80;84.10;;;;;;5062187;28;20272;-65
2021/07/13 02:07:07;;;;;;;8.87;5.50;;;23.80;83.80;;;;;;5061959;28;20221;-65
2021/07/13 02:09:35;;;;;;;9.13;5.33;;;23.90;83.80;;;;;;5066427;28;20287;-65
2021/07/13 02:12:03;;;;;;;6.97;6.27;;;23.90;83.60;;;;;;5065030;28;20209;-65
2021/07/13 02:14:30;;;;;;;7.93;5.40;;;23.90;83.60;;;;;;5068301;28;20297;-65
2021/07/13 02:16:58;;;;;;;6.90;4.93;;;23.90;83.60;;;;;;5069846;28;20205;-65
2021/07/13 02:19:26;;;;;;;7.00;4.30;;;24.00;83.00;;;;;;5068922;28;20250;-65
2021/07/13 02:21:53;;;;;;;7.63;4.90;;;24.00;82.50;;;;;;5067522;28;20249;-65
2021/07/13 02:24:22;;;;;;;6.10;5.00;;;24.00;81.90;;;;;;5069515;28;20218;-65
2021/07/13 02:27:18;;;;;;;10.33;5.40;;;24.00;81.80;;;;;;5069923;28;20214;-65
2021/07/13 02:29:52;;;;;;;8.53;5.30;;;24.00;81.60;;;;;;5068449;28;20257;-65
2021/07/13 02:32:42;;;;;;;6.73;4.77;;;24.00;81.00;;;;;;5067711;28;20214;-65
2021/07/13 02:35:12;;;;;;;5.77;4.77;;;24.10;80.80;;;;;;5066629;28;20215;-65
2021/07/13 02:37:41;;;;;;;6.70;5.07;;;24.20;80.00;;;;;;5070010;28;20296;-65
2021/07/13 02:40:11;;;;;;;6.93;4.83;;;24.20;79.90;;;;;;5068719;28;20701;-65
2021/07/13 02:42:44;;;;;;;5.87;5.27;;;24.20;79.90;;;;;;5066831;28;20225;-65
2021/07/13 02:45:13;;;;;;;8.50;5.37;;;24.10;80.30;;;;;;5068385;28;20217;-65
2021/07/13 02:47:43;;;;;;;5.67;5.17;;;24.10;80.50;;;;;;5070270;28;20635;-65
2021/07/13 02:50:14;;;;;;;7.90;5.30;;;24.00;80.50;;;;;;5068911;28;20674;-65
2021/07/13 02:52:43;;;;;;;5.47;4.00;;;24.00;80.30;;;;;;5069852;28;20220;-65
2021/07/13 02:55:15;;;;;;;8.17;4.40;;;24.00;79.70;;;;;;5065914;28;20213;-65
2021/07/13 02:57:44;;;;;;;8.00;5.50;;;24.00;79.30;;;;;;5062285;28;20214;-65
2021/07/13 03:00:15;;;;;;;5.30;4.80;;;24.10;79.20;;;;;;5061652;28;20226;-65
2021/07/13 03:02:45;;;;;;;7.70;5.80;;;24.10;79.20;;;;;;5063075;28;20221;-65
2021/07/13 03:05:18;;;;;;;6.63;5.47;;;24.20;79.40;;;;;;5060694;28;20226;-65
2021/07/13 03:07:47;;;;;;;5.77;5.17;;;24.20;79.50;;;;;;5062782;28;20237;-65
2021/07/13 03:10:14;;;;;;;9.47;5.13;;;24.20;79.80;;;;;;5064109;28;20237;-65
2021/07/13 03:12:43;;;;;;;7.50;5.27;;;24.20;80.00;;;;;;5063966;28;20305;-65
2021/07/13 03:15:10;;;;;;;8.00;5.50;;;24.30;80.20;;;;;;5063903;28;20222;-65
2021/07/13 03:17:38;;;;;;;6.20;4.50;;;24.30;80.10;;;;;;5062839;28;20276;-65
2021/07/13 03:20:06;;;;;;;6.13;4.77;;;24.40;80.00;;;;;;5061426;28;20210;-65
2021/07/13 03:22:45;;;;;;;7.57;4.80;;;24.50;79.60;;;;;;5063446;28;20267;-65
2021/07/13 03:25:36;;;;;;;9.97;5.00;;;24.60;78.90;;;;;;5056333;28;20221;-65
2021/07/13 03:28:04;;;;;;;7.53;4.47;;;24.70;78.20;;;;;;5060192;28;20222;-65
2021/07/13 03:30:33;;;;;;;6.30;4.60;;;24.80;77.90;;;;;;5063677;28;20265;-65
2021/07/13 03:33:01;;;;;;;7.27;4.80;;;24.80;77.60;;;;;;5064356;28;20207;-65
2021/07/13 03:35:29;;;;;;;4.80;4.30;;;24.80;77.70;;;;;;5060289;28;20511;-65
2021/07/13 03:37:58;;;;;;;10.20;5.50;;;24.90;78.10;;;;;;5063664;28;20735;-65
2021/07/13 03:40:28;;;;;;;7.20;6.07;;;25.00;79.20;;;;;;5067465;28;20655;-65
2021/07/13 03:42:56;;;;;;;10.70;5.80;;;25.00;79.10;;;;;;5065606;28;20620;-65
2021/07/13 03:45:25;;;;;;;7.10;5.50;;;25.00;79.80;;;;;;5064490;28;20229;-65
2021/07/13 03:47:54;;;;;;;8.80;5.60;;;25.00;80.20;;;;;;5066030;28;20240;-65
2021/07/13 03:50:23;;;;;;;10.73;5.97;;;25.10;81.10;;;;;;5066828;28;20234;-64
2021/07/13 03:52:50;;;;;;;6.83;6.03;;;25.00;81.40;;;;;;5066065;28;20207;-64
2021/07/13 03:55:17;;;;;;;10.60;6.50;;;25.00;81.80;;;;;;5064520;28;20206;-64
2021/07/13 03:57:45;;;;;;;8.00;6.47;;;25.00;82.40;;;;;;5066657;28;20587;-64
2021/07/13 04:00:15;;;;;;;9.80;6.77;;;25.00;82.60;;;;;;5066887;28;20217;-64
2021/07/13 04:02:43;;;;;;;10.70;6.87;;;25.00;83.10;;;;;;5063929;28;20654;-64
2021/07/13 04:05:11;;;;;;;10.17;6.50;;;25.10;83.20;;;;;;5061291;28;20222;-64
2021/07/13 04:07:39;;;;;;;10.77;5.73;;;25.00;83.10;;;;;;5069495;28;20218;-64
2021/07/13 04:10:13;;;;;;;6.80;5.43;;;25.00;83.00;;;;;;5064665;28;20238;-64
2021/07/13 04:12:42;;;;;;;12.30;7.53;;;25.10;83.10;;;;;;5066520;28;20215;-64
2021/07/13 04:15:10;;;;;;;8.13;7.03;;;25.10;83.20;;;;;;5066567;28;20296;-64
2021/07/13 04:17:37;;;;;;;12.07;7.30;;;25.10;83.40;;;;;;5064468;28;20214;-64
2021/07/13 04:20:05;;;;;;;10.13;6.57;;;25.20;83.50;;;;;;5064443;28;20220;-64
2021/07/13 04:22:32;;;;;;;8.83;7.23;;;25.20;83.60;;;;;;5067759;28;20228;-65
2021/07/13 04:25:04;;;;;;;8.30;6.10;;;25.20;83.70;;;;;;5065139;28;20763;-65
2021/07/13 04:27:31;;;;;;;9.43;6.50;;;25.20;83.80;;;;;;5064545;28;20211;-65
2021/07/13 04:29:58;;;;;;;12.03;6.57;;;25.20;83.70;;;;;;5064219;28;20230;-65
2021/07/13 04:32:31;;;;;;;10.03;5.93;;;25.20;83.80;;;;;;5064469;28;20253;-65
2021/07/13 04:34:58;;;;;;;6.47;5.87;;;25.20;83.80;;;;;;5065198;28;20732;-65
2021/07/13 04:37:26;;;;;;;8.37;6.43;;;25.20;83.80;;;;;;5063699;28;20224;-65
2021/07/13 04:39:53;;;;;;;10.30;6.53;;;25.30;83.90;;;;;;5063766;28;20214;-65
2021/07/13 04:42:20;;;;;;;6.67;5.87;;;25.30;83.90;;;;;;5066313;28;20221;-65
2021/07/13 04:44:47;;;;;;;7.53;6.07;;;25.30;83.90;;;;;;5064829;28;20243;-65
2021/07/13 04:47:13;;;;;;;8.40;5.57;;;25.30;84.00;;;;;;5063428;28;20241;-65
2021/07/13 04:49:40;;;;;;;12.10;5.87;;;25.30;84.10;;;;;;5065614;28;20244;-65
2021/07/13 04:52:07;;;;;;;9.03;6.47;;;25.30;84.10;;;;;;5064709;28;20218;-65
2021/07/13 04:54:34;;;;;;;8.77;6.30;;;25.30;84.10;;;;;;5063707;28;20237;-65
2021/07/13 04:57:03;;;;;;;11.47;5.90;;;25.30;84.00;;;;;;5063899;28;20217;-65
2021/07/13 04:59:30;;;;;;;10.10;5.50;;;25.40;84.20;;;;;;5065469;28;20278;-65
2021/07/13 05:01:57;;;;;;;8.57;5.90;;;25.40;84.20;;;;;;5064537;28;20214;-65
2021/07/13 05:04:25;;;;;;;9.53;6.10;;;25.40;84.20;;;;;;5062078;28;20667;-65
2021/07/13 05:06:53;;;;;;;9.87;5.67;;;25.50;84.40;;;;;;5060320;28;20221;-65
2021/07/13 05:09:21;;;;;;;9.80;6.63;;;25.50;84.60;;;;;;5063512;28;20245;-65
2021/07/13 05:11:48;;;;;;;8.53;5.50;;;25.50;84.60;;;;;;5063331;28;20211;-65
2021/07/13 05:14:16;;;;;;;10.37;5.80;;;25.60;84.70;;;;;;5066816;28;20202;-65
2021/07/13 05:16:43;;;;;;;7.03;6.40;;;25.60;84.60;;;;;;5063375;28;20214;-65
2021/07/13 05:19:12;;;;;;;7.80;5.77;;;25.70;84.60;;;;;;5063008;28;20325;-65
2021/07/13 05:21:42;;;;;;;10.40;6.10;;;25.70;84.60;;;;;;5062982;28;20272;-65
2021/07/13 05:24:09;;;;;;;7.37;6.00;;;25.80;84.60;;;;;;5062367;28;20226;-64
2021/07/13 05:26:36;;;;;;;7.97;6.27;;;25.80;84.50;;;;;;5065323;28;20213;-64
2021/07/13 05:29:05;;;;;;;7.67;5.53;;;25.90;84.50;;;;;;5064171;28;20225;-65
2021/07/13 05:31:32;;;;;;;8.80;6.33;;;26.00;84.40;;;;;;5062705;28;20214;-64
2021/07/13 05:34:00;;;;;;;8.67;6.63;;;26.00;84.20;;;;;;5065112;28;20202;-65
2021/07/13 05:36:27;;;;;;;9.27;6.30;;;26.10;84.10;;;;;;5061131;28;20202;-64
2021/07/13 05:38:54;;;;;;;12.57;6.37;;;26.20;83.90;;;;;;5063508;28;20214;-65
2021/07/13 05:41:22;;;;;;;11.47;6.30;;;26.30;83.50;;;;;;5062608;28;20279;-65
2021/07/13 05:43:50;;;;;;;7.13;5.60;;;26.40;83.30;;;;;;5064524;28;20271;-65
2021/07/13 05:46:17;;;;;;;16.13;6.70;;;26.50;83.10;;;;;;5064452;28;20772;-65
2021/07/13 05:48:44;;;;;;;7.63;6.13;;;26.60;82.80;;;;;;5062379;28;20222;-65
2021/07/13 05:51:12;;;;;;;8.23;6.53;;;26.70;82.50;;;;;;5062806;28;20241;-65
2021/07/13 05:53:39;;;;;;;7.80;6.50;;;26.70;82.00;;;;;;5064805;28;20210;-64
2021/07/13 05:56:07;;;;;;;10.57;5.97;;;26.80;81.70;;;;;;5063642;28;20325;-64
2021/07/13 05:58:36;;;;;;;6.53;5.67;;;26.90;81.60;;;;;;5062009;28;20215;-64
2021/07/13 06:01:04;;;;;;;10.07;5.90;;;27.00;81.40;;;;;;5062489;28;20217;-65
2021/07/13 06:03:32;;;;;;;7.77;5.17;;;27.10;81.20;;;;;;5065165;28;20217;-65
2021/07/13 06:05:59;;;;;;;12.67;5.63;;;27.20;80.70;;;;;;5061292;28;20232;-65
2021/07/13 06:08:26;;;;;;;7.73;5.60;;;27.30;80.40;;;;;;5065857;28;20227;-66
2021/07/13 06:10:54;;;;;;;9.53;5.40;;;27.40;80.40;;;;;;5065548;28;20238;-66
2021/07/13 06:13:21;;;;;;;7.60;5.73;;;27.50;80.20;;;;;;5065720;28;20259;-65
2021/07/13 06:15:48;;;;;;;10.80;5.63;;;27.70;79.70;;;;;;5061779;28;20241;-65
2021/07/13 06:18:19;;;;;;;8.53;6.37;;;27.70;79.00;;;;;;5063268;28;20246;-65
2021/07/13 06:20:47;;;;;;;7.27;5.67;;;27.70;79.00;;;;;;5064518;28;20271;-65
2021/07/13 06:23:14;;;;;;;6.93;5.80;;;27.70;79.00;;;;;;5064837;28;20288;-65
2021/07/13 06:25:42;;;;;;;13.60;5.80;;;27.60;79.00;;;;;;5064579;28;20217;-65
2021/07/13 06:28:11;;;;;;;10.70;5.47;;;27.60;79.30;;;;;;5060527;28;20248;-65
2021/07/13 06:30:39;;;;;;;8.73;4.80;;;27.60;79.60;;;;;;5064211;28;20312;-65
2021/07/13 06:33:07;;;;;;;12.47;5.57;;;27.60;79.60;;;;;;5062775;28;20237;-65
2021/07/13 06:35:34;;;;;;;11.10;5.60;;;27.60;79.20;;;;;;5061210;28;20244;-65
2021/07/13 06:38:02;;;;;;;7.57;6.03;;;27.70;79.30;;;;;;5062338;28;20276;-65
2021/07/13 06:40:30;;;;;;;12.83;6.20;;;27.60;79.40;;;;;;5061379;28;20662;-65
2021/07/13 06:42:56;;;;;;;9.60;5.43;;;27.60;79.70;;;;;;5063112;28;20244;-65
2021/07/13 06:45:24;;;;;;;10.07;5.40;;;27.50;79.80;;;;;;5062260;28;20232;-65
2021/07/13 06:47:54;;;;;;;8.67;5.53;;;27.50;80.00;;;;;;5061228;28;20235;-65
2021/07/13 06:50:25;;;;;;;10.53;4.70;;;27.50;80.00;;;;;;5060567;28;20230;-65
2021/07/13 06:52:53;;;;;;;8.03;4.60;;;27.60;79.90;;;;;;5061637;28;20215;-65
2021/07/13 06:55:21;;;;;;;9.87;6.07;;;27.80;79.80;;;;;;5061407;28;20605;-65
2021/07/13 06:57:49;;;;;;;41.73;8.90;;;27.80;79.30;;;;;;5059701;28;20214;-65
2021/07/13 07:00:16;;;;;;;14.27;6.20;;;27.90;79.20;;;;;;5062705;28;20213;-66
2021/07/13 07:02:43;;;;;;;14.67;5.67;;;27.90;79.20;;;;;;5060856;28;20276;-65
2021/07/13 07:05:10;;;;;;;12.73;6.50;;;27.90;79.20;;;;;;5059978;28;20237;-65
2021/07/13 07:07:47;;;;;;;10.23;5.33;;;27.90;79.20;;;;;;5063570;28;20217;-65
2021/07/13 07:10:15;;;;;;;7.37;5.10;;;28.00;79.10;;;;;;5063093;28;20233;-65
2021/07/13 07:12:43;;;;;;;10.33;5.67;;;28.10;78.90;;;;;;5067217;28;20278;-65
2021/07/13 07:15:10;;;;;;;13.33;4.97;;;28.30;78.40;;;;;;5066463;28;20224;-65
2021/07/13 07:17:49;;;;;;;7.80;5.37;;;28.50;78.00;;;;;;5063221;28;20220;-65
2021/07/13 07:20:24;;;;;;;8.33;5.00;;;28.70;77.60;;;;;;5067175;28;20584;-65
2021/07/13 07:22:51;;;;;;;12.67;5.67;;;28.90;76.30;;;;;;5066763;28;20596;-65
2021/07/13 07:25:18;;;;;;;6.80;4.97;;;29.10;75.80;;;;;;5064874;28;20214;-65
2021/07/13 07:27:46;;;;;;;11.03;5.67;;;29.30;75.40;;;;;;5065755;28;20647;-65
2021/07/13 07:30:16;;;;;;;8.63;4.80;;;29.60;74.40;;;;;;5067405;28;20237;-65
2021/07/13 07:32:45;;;;;;;9.20;4.60;;;29.80;73.10;;;;;;5066205;28;20272;-65
2021/07/13 07:35:13;;;;;;;8.03;5.23;;;29.90;72.50;;;;;;5066064;28;20215;-65
2021/07/13 07:37:40;;;;;;;8.67;5.70;;;29.90;71.90;;;;;;5065964;28;20271;-65
2021/07/13 07:40:17;;;;;;;6.10;4.10;;;29.90;71.90;;;;;;5063658;28;20222;-65
2021/07/13 07:42:50;;;;;;;6.10;3.93;;;30.00;71.20;;;;;;5064951;28;20652;-65
2021/07/13 07:45:17;;;;;;;5.57;3.20;;;30.10;69.50;;;;;;5063082;28;20600;-65
2021/07/13 07:47:45;;;;;;;12.20;4.33;;;30.30;68.90;;;;;;5067123;28;20543;-65
2021/07/13 07:50:13;;;;;;;8.57;4.20;;;30.50;68.10;;;;;;5064963;28;20242;-65
2021/07/13 07:52:40;;;;;;;7.93;4.00;;;30.60;67.70;;;;;;5064754;28;20264;-66
2021/07/13 07:55:09;;;;;;;5.67;3.90;;;30.60;67.70;;;;;;5066715;28;20597;-66
2021/07/13 07:57:36;;;;;;;5.90;3.97;;;30.80;67.60;;;;;;5066242;28;20205;-66
2021/07/13 08:00:11;;;;;;;8.57;4.33;;;31.00;66.90;;;;;;5064204;28;20676;-66
2021/07/13 08:02:39;;;;;;;7.83;4.10;;;31.20;65.80;;;;;;5063650;28;20228;-66
2021/07/13 08:05:07;;;;;;;7.40;3.73;;;31.30;65.50;;;;;;5062763;28;20214;-66
2021/07/13 08:07:34;;;;;;;8.93;3.50;;;31.50;64.80;;;;;;5066665;28;20229;-66
2021/07/13 08:10:05;;;;;;;6.00;3.47;;;31.60;62.90;;;;;;5063964;28;20235;-66
2021/07/13 08:12:32;;;;;;;9.73;3.40;;;31.60;62.40;;;;;;5064365;28;20203;-66
2021/07/13 08:14:59;;;;;;;7.93;3.00;;;31.70;59.80;;;;;;5066553;28;20205;-66
2021/07/13 08:17:26;;;;;;;5.23;2.80;;;31.80;58.40;;;;;;5065308;28;20604;-66
2021/07/13 08:19:53;;;;;;;7.37;3.40;;;32.10;57.00;;;;;;5064217;28;20213;-66
2021/07/13 08:22:20;;;;;;;3.40;2.17;;;32.30;55.20;;;;;;5067634;28;20214;-66
2021/07/13 08:24:47;;;;;;;8.60;3.20;;;32.50;52.90;;;;;;5063407;28;20633;-66
2021/07/13 08:27:15;;;;;;;3.17;2.30;;;32.50;51.80;;;;;;5068064;28;20210;-66
2021/07/13 08:29:42;;;;;;;3.00;2.23;;;32.60;49.40;;;;;;5065730;28;20217;-66
2021/07/13 08:32:09;;;;;;;7.03;2.80;;;32.80;49.70;;;;;;5066128;28;20213;-66
2021/07/13 08:34:36;;;;;;;8.40;2.60;;;33.00;49.70;;;;;;5067964;28;20625;-66
2021/07/13 08:37:05;;;;;;;7.17;3.17;;;33.30;47.50;;;;;;5062585;28;20693;-66
2021/07/13 08:39:32;;;;;;;5.93;2.60;;;33.50;46.40;;;;;;5064616;28;20214;-66
2021/07/13 08:42:02;;;;;;;6.97;2.73;;;33.70;45.20;;;;;;5063391;28;20222;-66
2021/07/13 08:44:31;;;;;;;5.87;3.17;;;33.70;43.40;;;;;;5064487;28;20667;-66
2021/07/13 08:46:58;;;;;;;15.30;3.03;;;33.70;44.20;;;;;;5065929;28;20213;-66
2021/07/13 08:49:25;;;;;;;3.83;2.30;;;33.70;43.80;;;;;;5064900;28;20752;-66
2021/07/13 08:51:53;;;;;;;3.00;2.30;;;33.50;43.20;;;;;;5063639;28;20260;-66
2021/07/13 08:54:20;;;;;;;6.93;2.23;;;33.40;43.90;;;;;;5065569;28;20209;-66
2021/07/13 08:56:47;;;;;;;6.23;2.40;;;33.50;42.70;;;;;;5065216;28;20317;-66
2021/07/13 08:59:15;;;;;;;5.83;2.20;;;33.70;42.20;;;;;;5063273;28;20214;-66
2021/07/13 09:01:42;;;;;;;5.70;2.60;;;34.00;42.40;;;;;;5063996;28;20816;-65
2021/07/13 09:04:09;;;;;;;8.87;2.67;;;34.30;40.90;;;;;;5065497;28;20213;-66
2021/07/13 09:07:06;;;;;;;3.70;2.33;;;34.50;41.20;;;;;;5062267;28;20245;-66
2021/07/13 09:09:38;;;;;;;8.40;2.30;;;34.70;40.40;;;;;;5062291;28;20228;-66
2021/07/13 09:12:11;;;;;;;3.00;2.10;;;34.70;39.80;;;;;;5066357;28;20233;-66
2021/07/13 09:15:05;;;;;;;6.10;1.80;;;34.80;40.10;;;;;;5062859;28;20263;-66
2021/07/13 09:17:40;;;;;;;8.83;2.93;;;35.00;40.40;;;;;;5060673;28;20296;-66
2021/07/13 09:20:17;;;;;;;5.23;2.40;;;35.20;39.00;;;;;;5063915;28;20218;-66
2021/07/13 09:23:00;;;;;;;3.37;2.10;;;35.20;38.90;;;;;;5063422;28;20216;-65
2021/07/13 09:25:35;;;;;;;5.53;2.10;;;35.40;39.30;;;;;;5062819;28;20214;-65
2021/07/13 09:28:08;;;;;;;6.07;2.03;;;35.40;38.80;;;;;;5062473;28;20748;-65
2021/07/13 09:30:37;;;;;;;6.33;1.63;;;35.30;37.90;;;;;;5062838;28;20535;-65
2021/07/13 09:33:16;;;;;;;4.20;2.40;;;35.30;38.10;;;;;;5064894;28;20576;-65
2021/07/13 09:36:13;;;;;;;9.83;2.17;;;35.30;37.60;;;;;;5061074;28;20311;-66
2021/07/13 09:38:49;;;;;;;2.80;1.87;;;35.20;38.70;;;;;;5069686;28;20218;-66
2021/07/13 09:41:22;;;;;;;3.50;2.23;;;35.50;38.10;;;;;;5062990;28;20213;-66
2021/07/13 09:44:00;;;;;;;9.27;2.37;;;35.70;37.50;;;;;;5062345;28;20229;-66
2021/07/13 09:46:36;;;;;;;9.00;2.60;;;35.70;37.60;;;;;;5062234;28;20844;-67
2021/07/13 09:49:22;;;;;;;5.70;2.00;;;35.40;38.00;;;;;;5063535;28;20308;-66
2021/07/13 09:52:00;;;;;;;11.73;2.60;;;35.00;37.00;;;;;;5063965;28;20261;-66
2021/07/13 09:54:39;;;;;;;2.70;2.27;;;34.60;38.40;;;;;;5063221;28;20206;-66
2021/07/13 09:57:38;;;;;;;5.07;2.23;;;34.30;38.60;;;;;;5063505;28;20308;-66
2021/07/13 10:00:06;;;;;;;4.80;2.00;;;33.90;38.80;;;;;;5060900;28;20218;-65
2021/07/13 10:02:33;;;;;;;4.97;2.20;;;33.80;39.00;;;;;;5062678;28;20221;-66
2021/07/13 10:05:03;;;;;;;7.73;2.47;;;33.60;39.20;;;;;;5066130;28;20229;-66
2021/07/13 10:07:33;;;;;;;3.67;2.23;;;33.60;38.90;;;;;;5062427;28;20375;-66
2021/07/13 10:10:00;;;;;;;3.57;1.67;;;33.60;39.70;;;;;;5061552;28;20237;-66
2021/07/13 10:12:28;;;;;;;4.97;1.70;;;33.50;39.50;;;;;;5063996;28;20241;-66
2021/07/13 10:14:59;;;;;;;4.93;2.17;;;33.40;40.70;;;;;;5064226;28;20575;-66
2021/07/13 10:17:31;;;;;;;7.10;2.20;;;33.20;39.30;;;;;;5063349;28;20214;-65
2021/07/13 10:20:11;;;;;;;6.30;1.90;;;33.00;39.00;;;;;;5059268;28;20206;-66
2021/07/13 10:22:43;;;;;;;3.70;2.30;;;32.80;40.00;;;;;;5064885;28;20210;-65
2021/07/13 10:25:11;;;;;;;4.00;1.93;;;32.60;40.80;;;;;;5061631;28;20214;-66
2021/07/13 10:27:40;;;;;;;5.53;2.10;;;32.40;40.90;;;;;;5060341;28;20755;-65
2021/07/13 10:30:16;;;;;;;6.73;2.20;;;32.10;41.20;;;;;;5062041;28;20582;-65
2021/07/13 10:32:44;;;;;;;7.23;2.43;;;31.90;41.30;;;;;;5061884;28;20287;-65
2021/07/13 10:35:25;;;;;;;7.90;2.57;;;31.70;41.90;;;;;;5063773;28;20206;-65
2021/07/13 10:38:20;;;;;;;7.40;2.50;;;31.60;42.00;;;;;;5062949;28;20210;-65
2021/07/13 10:40:49;;;;;;;5.50;1.97;;;31.40;42.70;;;;;;5063750;28;20233;-65
2021/07/13 10:43:19;;;;;;;5.23;1.93;;;31.30;43.40;;;;;;5063824;28;20214;-65
2021/07/13 10:46:03;;;;;;;5.73;2.40;;;31.10;43.60;;;;;;5060911;28;20218;-65
2021/07/13 10:48:30;;;;;;;4.00;2.53;;;31.00;43.80;;;;;;5064421;28;20214;-65
2021/07/13 10:51:09;;;;;;;9.70;1.97;;;30.90;44.00;;;;;;5067834;28;20823;-65
2021/07/13 10:53:39;;;;;;;7.00;2.00;;;30.80;44.80;;;;;;5066009;28;20222;-65
2021/07/13 10:56:10;;;;;;;5.07;2.50;;;30.70;45.30;;;;;;5063372;28;20208;-65
2021/07/13 10:58:51;;;;;;;7.00;2.93;;;30.60;45.50;;;;;;5066701;28;20218;-65
2021/07/13 11:01:25;;;;;;;7.23;2.67;;;30.50;45.90;;;;;;5066349;28;20225;-66
2021/07/13 11:03:53;;;;;;;15.13;3.17;;;30.40;46.60;;;;;;5063454;28;20255;-66
2021/07/13 11:06:40;;;;;;;9.80;3.73;;;30.30;47.10;;;;;;5065051;28;20279;-66
2021/07/13 11:09:19;;;;;;;12.90;4.47;;;30.20;48.30;;;;;;5067750;28;20610;-66
2021/07/13 11:11:47;;;;;;;15.90;3.40;;;30.20;49.20;;;;;;5066500;28;20237;-66
2021/07/13 11:14:15;;;;;;;11.10;3.67;;;30.10;49.70;;;;;;5065788;28;20203;-66
2021/07/13 11:16:44;;;;;;;12.63;3.90;;;30.10;50.20;;;;;;5065894;28;20210;-66
2021/07/13 11:19:17;;;;;;;12.03;4.20;;;30.00;50.60;;;;;;5063336;28;20253;-66
2021/07/13 11:21:50;;;;;;;11.10;3.40;;;29.90;50.80;;;;;;5068780;28;20209;-66
2021/07/13 11:24:20;;;;;;;13.03;3.50;;;29.80;51.00;;;;;;5066310;28;20219;-66
2021/07/13 11:26:50;;;;;;;22.00;5.13;;;29.70;51.30;;;;;;5063202;28;20211;-65
2021/07/13 11:29:19;;;;;;;21.53;4.83;;;29.60;52.80;;;;;;5066369;28;20278;-68
2021/07/13 11:31:57;;;;;;;31.33;6.50;;;29.50;56.10;;;;;;5064418;28;20245;-68
2021/07/13 11:34:30;;;;;;;15.33;5.53;;;29.10;58.40;;;;;;5068203;28;20267;-68
2021/07/13 11:36:57;;;;;;;13.00;4.70;;;28.70;61.90;;;;;;5065985;28;20213;-68
2021/07/13 11:39:25;;;;;;;14.60;4.63;;;28.20;64.00;;;;;;5067077;28;20271;-68
2021/07/13 11:41:55;;;;;;;15.07;5.07;;;27.80;66.20;;;;;;5065852;28;20222;-68
2021/07/13 11:44:22;;;;;;;18.10;5.23;;;27.50;67.60;;;;;;5064819;28;20210;-68
2021/07/13 11:46:51;;;;;;;15.27;5.30;;;27.20;68.90;;;;;;5066085;28;20222;-68
2021/07/13 11:49:24;;;;;;;22.47;5.10;;;27.00;70.00;;;;;;5067021;28;20253;-68
2021/07/13 11:51:58;;;;;;;15.90;6.23;;;26.80;71.40;;;;;;5066110;28;20230;-68
2021/07/13 11:54:40;;;;;;;12.50;4.80;;;26.70;72.50;;;;;;5064804;28;20214;-68
2021/07/13 11:57:10;;;;;;;16.53;4.90;;;26.60;73.10;;;;;;5063005;28;20211;-68
2021/07/13 11:59:38;;;;;;;12.17;4.53;;;26.40;73.40;;;;;;5065715;28;20632;-68
2021/07/13 12:02:07;;;;;;;9.63;5.23;;;26.30;74.20;;;;;;5064513;28;20229;-68
2021/07/13 12:04:41;;;;;;;13.67;4.93;;;26.30;74.90;;;;;;5068050;28;20283;-67
2021/07/13 12:07:09;;;;;;;11.40;5.33;;;26.20;75.50;;;;;;5064952;28;20225;-67
2021/07/13 12:09:40;;;;;;;11.87;5.03;;;26.10;75.40;;;;;;5062315;28;20576;-67
2021/07/13 12:12:09;;;;;;;14.63;5.27;;;26.10;75.60;;;;;;5048482;28;20231;-67
2021/07/13 12:14:38;;;;;;;19.10;5.50;;;26.00;75.70;;;;;;5063853;28;20206;-67
2021/07/13 12:17:06;;;;;;;13.80;4.97;;;25.90;76.10;;;;;;5064811;28;20214;-68
2021/07/13 12:19:35;;;;;;;15.70;5.57;;;25.90;76.30;;;;;;5065831;28;20252;-67
2021/07/13 12:22:08;;;;;;;15.13;5.47;;;25.90;76.50;;;;;;5062168;28;20206;-67
2021/07/13 12:24:37;;;;;;;12.97;4.73;;;26.00;77.00;;;;;;5065978;28;20213;-67
2021/07/13 12:27:07;;;;;;;11.13;4.90;;;26.00;76.90;;;;;;5064785;28;20218;-67
2021/07/13 12:29:42;;;;;;;11.80;5.10;;;26.10;76.60;;;;;;5062888;28;20215;-67
2021/07/13 12:32:17;;;;;;;18.67;5.20;;;26.30;76.40;;;;;;5063732;28;20226;-67
2021/07/13 12:34:45;;;;;;;15.57;5.17;;;26.40;76.10;;;;;;5062033;28;20320;-68
2021/07/13 12:37:15;;;;;;;15.37;6.00;;;26.60;75.50;;;;;;5065579;28;20292;-68
2021/07/13 12:40:00;;;;;;;12.47;4.40;;;26.80;75.10;;;;;;5064632;28;20217;-67
2021/07/13 12:42:31;;;;;;;10.37;5.30;;;27.00;74.30;;;;;;5061215;28;20210;-67
2021/07/13 12:45:15;;;;;;;11.13;4.03;;;27.20;74.20;;;;;;5062911;28;20284;-68
2021/07/13 12:47:51;;;;;;;6.70;4.43;;;27.40;73.60;;;;;;5060818;28;20652;-67
2021/07/13 12:50:48;;;;;;;6.47;3.87;;;27.70;72.60;;;;;;5065417;28;20213;-67
2021/07/13 12:53:25;;;;;;;8.73;3.80;;;28.00;70.90;;;;;;5064229;28;20238;-67
2021/07/13 12:56:00;;;;;;;11.37;4.50;;;28.30;69.50;;;;;;5059982;28;20215;-67
2021/07/13 12:58:27;;;;;;;8.60;4.03;;;28.70;68.20;;;;;;5062867;28;20210;-67
2021/07/13 13:00:57;;;;;;;11.27;4.57;;;28.90;67.20;;;;;;5063863;28;20213;-67